createdAt,value
2019-04-29T00:07:51.611Z,98.77
2019-04-29T00:18:51.944Z,97.28
2019-04-29T00:29:56.116Z,99.99
2019-04-29T00:40:57.323Z,98.10
2019-04-29T00:51:58.799Z,99.99
2019-04-29T01:03:01.194Z,99.73
2019-04-29T01:14:02.520Z,99.99
2019-04-29T01:25:00.331Z,98.97
2019-04-29T01:36:02.219Z,96.11
2019-04-29T01:47:00.509Z,99.99
2019-04-29T01:57:59.904Z,97.17
2019-04-29T02:09:04.999Z,96.97
2019-04-29T02:20:02.531Z,95.70
2019-04-29T02:31:01.769Z,98.10
2019-04-29T02:42:04.018Z,98.81
2019-04-29T02:53:02.962Z,97.83
2019-04-29T03:04:05.124Z,97.89
2019-04-29T03:15:06.143Z,98.24
2019-04-29T03:26:05.520Z,99.99
2019-04-29T03:37:07.658Z,99.99
2019-04-29T03:48:05.666Z,99.99
2019-04-29T03:59:09.921Z,99.99
2019-04-29T04:10:11.875Z,99.99
2019-04-29T04:21:10.340Z,99.99
2019-04-29T04:32:15.053Z,99.99
2019-04-29T04:43:17.802Z,99.99
2019-04-29T04:54:17.843Z,99.99
2019-04-29T05:05:19.285Z,99.99
2019-04-29T05:16:16.631Z,99.99
2019-04-29T05:27:17.758Z,99.99
2019-04-29T05:38:19.473Z,99.99
2019-04-29T05:49:23.190Z,97.69
2019-04-29T06:00:24.304Z,96.22
2019-04-29T06:11:28.028Z,94.13
2019-04-29T06:22:26.035Z,92.67
2019-04-29T06:33:24.158Z,91.26
2019-04-29T06:44:28.078Z,90.20
2019-04-29T06:55:30.019Z,89.29
2019-04-29T07:06:32.487Z,88.40
2019-04-29T07:17:36.439Z,89.55
2019-04-29T07:28:38.877Z,88.84
2019-04-29T07:39:38.464Z,89.61
2019-04-29T07:50:39.282Z,90.41
2019-04-29T08:01:42.253Z,90.22
2019-04-29T08:12:41.381Z,91.94
2019-04-29T08:23:42.242Z,96.06
2019-04-29T08:34:43.816Z,93.78
2019-04-29T08:45:44.791Z,92.16
2019-04-29T08:57:01.736Z,96.04
2019-04-29T09:07:48.556Z,95.90
2019-04-29T09:18:45.340Z,95.75
2019-04-29T09:29:48.992Z,92.10
2019-04-29T09:40:54.630Z,91.30
2019-04-29T09:51:53.297Z,90.84
2019-04-29T10:02:51.058Z,90.14
2019-04-29T10:13:40.006Z,89.83
2019-04-29T10:24:34.121Z,89.12
2019-04-29T10:35:33.685Z,88.31
2019-04-29T10:46:31.687Z,87.95
2019-04-29T10:57:33.769Z,88.21
2019-04-29T11:08:33.735Z,87.26
2019-04-29T11:19:35.155Z,87.36
2019-04-29T11:30:40.728Z,87.66
2019-04-29T11:41:41.861Z,91.71
2019-04-29T11:52:38.960Z,87.22
2019-04-29T12:03:42.500Z,86.25
2019-04-29T12:14:40.774Z,88.07
2019-04-29T12:25:38.305Z,87.05
2019-04-29T12:36:36.755Z,87.05
2019-04-29T12:47:32.895Z,87.42
2019-04-29T12:58:35.688Z,87.42
2019-04-29T13:09:36.686Z,86.15
2019-04-29T13:20:32.446Z,87.18
2019-04-29T13:31:38.451Z,86.21
2019-04-29T13:42:36.352Z,87.13
2019-04-29T13:53:37.586Z,88.65
2019-04-29T14:04:40.314Z,86.37
2019-04-29T14:15:42.004Z,85.05
2019-04-29T14:26:47.599Z,87.04
2019-04-29T14:37:54.892Z,85.16
2019-04-29T14:48:48.513Z,86.47
2019-04-29T14:59:48.035Z,85.19
2019-04-29T15:10:46.298Z,87.68
2019-04-29T15:21:45.847Z,86.21
2019-04-29T15:32:47.209Z,85.30
2019-04-29T15:43:47.046Z,86.91
2019-04-29T15:54:41.612Z,87.02
2019-04-29T16:06:00.018Z,89.95
2019-04-29T16:16:43.660Z,87.73
2019-04-29T16:27:51.510Z,87.26
2019-04-29T16:38:51.394Z,87.97
2019-04-29T16:49:57.548Z,91.75
2019-04-29T17:01:01.694Z,92.21
2019-04-29T17:12:02.045Z,87.91
2019-04-29T17:23:05.587Z,89.17
2019-04-29T17:34:05.639Z,89.37
2019-04-29T17:45:11.991Z,89.81
2019-04-29T17:56:06.163Z,91.78
2019-04-29T18:07:12.001Z,92.64
2019-04-29T18:18:17.373Z,92.49
2019-04-29T18:29:17.847Z,91.68
2019-04-29T18:40:20.098Z,91.32
2019-04-29T18:51:15.344Z,91.93
2019-04-29T19:02:16.551Z,90.51
2019-04-29T19:13:13.354Z,90.51
2019-04-29T19:24:08.927Z,90.81
2019-04-29T19:35:07.887Z,92.58
2019-04-29T19:46:03.142Z,92.54
2019-04-29T19:57:03.551Z,91.56
2019-04-29T20:08:03.672Z,92.48
2019-04-29T20:19:02.136Z,93.44
2019-04-29T20:30:15.942Z,94.00
2019-04-29T20:41:13.124Z,92.07
2019-04-29T20:52:20.579Z,92.38
2019-04-29T21:03:27.680Z,91.67
2019-04-29T21:14:33.873Z,92.12
2019-04-29T21:25:35.450Z,93.64
2019-04-29T21:36:39.104Z,93.54
2019-04-29T21:47:44.744Z,92.32
2019-04-29T21:58:45.449Z,92.02
2019-04-29T22:09:50.318Z,91.51
2019-04-29T22:20:50.037Z,91.71
2019-04-29T22:31:53.592Z,93.07
2019-04-29T22:43:04.753Z,91.65
2019-04-29T22:53:58.363Z,91.96
2019-04-29T23:04:58.463Z,92.26
2019-04-29T23:16:01.782Z,92.47
2019-04-29T23:27:02.274Z,91.75
2019-04-29T23:38:09.354Z,90.09
2019-04-29T23:49:07.831Z,91.45
